sensor_id;sensor_type;location;lat;lon;timestamp;temperature;humidity
3488;DHT22;38546;48.170;11.724;2023-03-01T00:02:09;1.90;99.90
3488;DHT22;38546;48.170;11.724;2023-03-01T00:04:59;1.50;99.90
3488;DHT22;38546;48.170;11.724;2023-03-01T00:07:48;1.40;99.90
3488;DHT22;38546;48.170;11.724;2023-03-01T00:10:37;1.60;99.90
3488;DHT22;38546;48.170;11.724;2023-03-01T00:13:26;1.60;99.90
3488;DHT22;38546;48.170;11.724;2023-03-01T00:16:31;1.30;99.90
3488;DHT22;38546;48.170;11.724;2023-03-01T00:19:22;1.30;99.90
3488;DHT22;38546;48.170;11.724;2023-03-01T00:22:12;1.20;99.90
3488;DHT22;38546;48.170;11.724;2023-03-01T00:25:02;1.30;99.90
3488;DHT22;38546;48.170;11.724;2023-03-01T00:27:52;1.50;99.90
3488;DHT22;38546;48.170;11.724;2023-03-01T00:30:41;1.50;99.90
3488;DHT22;38546;48.170;11.724;2023-03-01T00:33:30;1.60;99.90
3488;DHT22;38546;48.170;11.724;2023-03-01T00:36:20;1.60;99.90
3488;DHT22;38546;48.170;11.724;2023-03-01T00:39:14;1.40;99.90
3488;DHT22;38546;48.170;11.724;2023-03-01T00:42:04;1.30;99.90
3488;DHT22;38546;48.170;11.724;2023-03-01T00:44:53;1.50;99.90
3488;DHT22;38546;48.170;11.724;2023-03-01T00:47:43;1.50;99.90
3488;DHT22;38546;48.170;11.724;2023-03-01T00:50:33;1.70;99.90
3488;DHT22;38546;48.170;11.724;2023-03-01T00:53:22;1.60;99.90
3488;DHT22;38546;48.170;11.724;2023-03-01T00:56:13;1.60;99.90
3488;DHT22;38546;48.170;11.724;2023-03-01T00:59:03;1.70;99.90
3488;DHT22;38546;48.170;11.724;2023-03-01T01:01:52;1.40;99.90
3488;DHT22;38546;48.170;11.724;2023-03-01T01:04:41;1.60;99.90
3488;DHT22;38546;48.170;11.724;2023-03-01T01:07:30;1.50;99.90
3488;DHT22;38546;48.170;11.724;2023-03-01T01:10:20;1.30;99.90
3488;DHT22;38546;48.170;11.724;2023-03-01T01:13:09;1.40;99.90
3488;DHT22;38546;48.170;11.724;2023-03-01T01:16:01;1.50;99.90
3488;DHT22;38546;48.170;11.724;2023-03-01T01:18:51;1.40;99.90
3488;DHT22;38546;48.170;11.724;2023-03-01T01:21:41;1.30;99.90
3488;DHT22;38546;48.170;11.724;2023-03-01T01:24:33;1.40;99.90
3488;DHT22;38546;48.170;11.724;2023-03-01T01:27:23;1.30;99.90
3488;DHT22;38546;48.170;11.724;2023-03-01T01:30:13;1.50;99.90
3488;DHT22;38546;48.170;11.724;2023-03-01T01:33:02;1.40;99.90
3488;DHT22;38546;48.170;11.724;2023-03-01T01:35:52;1.30;99.90
3488;DHT22;38546;48.170;11.724;2023-03-01T01:38:42;1.30;99.90
3488;DHT22;38546;48.170;11.724;2023-03-01T01:41:31;1.20;99.90
3488;DHT22;38546;48.170;11.724;2023-03-01T01:44:26;1.20;99.90
3488;DHT22;38546;48.170;11.724;2023-03-01T01:47:19;1.20;99.90
3488;DHT22;38546;48.170;11.724;2023-03-01T01:50:16;1.50;99.90
3488;DHT22;38546;48.170;11.724;2023-03-01T01:53:10;1.40;99.90
3488;DHT22;38546;48.170;11.724;2023-03-01T01:56:03;1.60;99.90
3488;DHT22;38546;48.170;11.724;2023-03-01T01:58:55;1.40;99.90
3488;DHT22;38546;48.170;11.724;2023-03-01T02:01:45;1.40;99.90
3488;DHT22;38546;48.170;11.724;2023-03-01T02:04:34;1.50;99.90
3488;DHT22;38546;48.170;11.724;2023-03-01T02:07:23;1.60;99.90
3488;DHT22;38546;48.170;11.724;2023-03-01T02:10:13;1.50;99.90
3488;DHT22;38546;48.170;11.724;2023-03-01T02:13:03;1.40;99.90
3488;DHT22;38546;48.170;11.724;2023-03-01T02:15:53;1.50;99.90
3488;DHT22;38546;48.170;11.724;2023-03-01T02:18:43;1.50;99.90
3488;DHT22;38546;48.170;11.724;2023-03-01T02:21:58;1.40;99.90
3488;DHT22;38546;48.170;11.724;2023-03-01T02:28:50;1.20;99.90
3488;DHT22;38546;48.170;11.724;2023-03-01T02:31:40;1.30;99.90
3488;DHT22;38546;48.170;11.724;2023-03-01T02:34:33;1.30;99.90
3488;DHT22;38546;48.170;11.724;2023-03-01T02:37:24;1.10;99.90
3488;DHT22;38546;48.170;11.724;2023-03-01T02:40:17;0.90;99.90
3488;DHT22;38546;48.170;11.724;2023-03-01T02:43:10;1.00;99.90
3488;DHT22;38546;48.170;11.724;2023-03-01T02:46:07;1.20;99.90
3488;DHT22;38546;48.170;11.724;2023-03-01T02:49:16;1.10;99.90
3488;DHT22;38546;48.170;11.724;2023-03-01T02:53:49;1.10;99.90
3488;DHT22;38546;48.170;11.724;2023-03-01T02:56:48;0.90;99.90
3488;DHT22;38546;48.170;11.724;2023-03-01T02:59:39;1.20;99.90
3488;DHT22;38546;48.170;11.724;2023-03-01T03:02:30;1.40;99.90
3488;DHT22;38546;48.170;11.724;2023-03-01T03:05:30;1.50;99.90
3488;DHT22;38546;48.170;11.724;2023-03-01T03:08:20;1.40;99.90
3488;DHT22;38546;48.170;11.724;2023-03-01T03:11:12;1.10;99.90
3488;DHT22;38546;48.170;11.724;2023-03-01T03:14:02;0.80;99.90
3488;DHT22;38546;48.170;11.724;2023-03-01T03:16:52;1.00;99.90
3488;DHT22;38546;48.170;11.724;2023-03-01T03:19:41;1.00;99.90
3488;DHT22;38546;48.170;11.724;2023-03-01T03:22:34;1.00;99.90
3488;DHT22;38546;48.170;11.724;2023-03-01T03:25:24;1.10;99.90
3488;DHT22;38546;48.170;11.724;2023-03-01T03:28:14;1.10;99.90
3488;DHT22;38546;48.170;11.724;2023-03-01T03:31:06;0.90;99.90
3488;DHT22;38546;48.170;11.724;2023-03-01T03:33:56;1.00;99.90
3488;DHT22;38546;48.170;11.724;2023-03-01T03:36:45;0.80;99.90
3488;DHT22;38546;48.170;11.724;2023-03-01T03:39:34;0.70;99.90
3488;DHT22;38546;48.170;11.724;2023-03-01T03:42:24;0.70;99.90
3488;DHT22;38546;48.170;11.724;2023-03-01T03:45:13;0.80;99.90
3488;DHT22;38546;48.170;11.724;2023-03-01T03:48:04;1.10;99.90
3488;DHT22;38546;48.170;11.724;2023-03-01T03:50:56;0.80;99.90
3488;DHT22;38546;48.170;11.724;2023-03-01T03:53:45;0.80;99.90
3488;DHT22;38546;48.170;11.724;2023-03-01T03:56:35;0.60;99.90
3488;DHT22;38546;48.170;11.724;2023-03-01T03:59:24;0.60;99.90
3488;DHT22;38546;48.170;11.724;2023-03-01T04:02:14;0.80;99.90
3488;DHT22;38546;48.170;11.724;2023-03-01T04:05:12;0.90;99.90
3488;DHT22;38546;48.170;11.724;2023-03-01T04:08:03;0.70;99.90
3488;DHT22;38546;48.170;11.724;2023-03-01T04:11:04;0.70;99.90
3488;DHT22;38546;48.170;11.724;2023-03-01T04:14:12;0.70;99.90
3488;DHT22;38546;48.170;11.724;2023-03-01T04:17:02;0.90;99.90
3488;DHT22;38546;48.170;11.724;2023-03-01T04:19:54;0.70;99.90
3488;DHT22;38546;48.170;11.724;2023-03-01T04:22:44;0.60;99.90
3488;DHT22;38546;48.170;11.724;2023-03-01T04:25:49;0.90;99.90
3488;DHT22;38546;48.170;11.724;2023-03-01T04:28:43;0.70;99.90
3488;DHT22;38546;48.170;11.724;2023-03-01T04:31:34;0.70;99.90
3488;DHT22;38546;48.170;11.724;2023-03-01T04:34:23;0.60;99.90
3488;DHT22;38546;48.170;11.724;2023-03-01T04:37:12;0.40;99.90
3488;DHT22;38546;48.170;11.724;2023-03-01T04:40:03;0.40;99.90
3488;DHT22;38546;48.170;11.724;2023-03-01T04:43:05;0.50;99.90
3488;DHT22;38546;48.170;11.724;2023-03-01T04:45:54;0.60;99.90
3488;DHT22;38546;48.170;11.724;2023-03-01T04:48:44;0.60;99.90
3488;DHT22;38546;48.170;11.724;2023-03-01T04:51:35;0.60;99.90
3488;DHT22;38546;48.170;11.724;2023-03-01T04:54:24;0.30;99.90
3488;DHT22;38546;48.170;11.724;2023-03-01T04:57:13;0.20;99.90
3488;DHT22;38546;48.170;11.724;2023-03-01T05:00:05;-0.10;99.90
3488;DHT22;38546;48.170;11.724;2023-03-01T05:03:08;-0.10;99.90
3488;DHT22;38546;48.170;11.724;2023-03-01T05:05:58;-0.20;99.90
3488;DHT22;38546;48.170;11.724;2023-03-01T05:08:48;-0.30;99.90
3488;DHT22;38546;48.170;11.724;2023-03-01T05:11:38;-0.30;99.90
3488;DHT22;38546;48.170;11.724;2023-03-01T05:14:28;-0.30;99.90
3488;DHT22;38546;48.170;11.724;2023-03-01T05:17:17;-0.30;99.90
3488;DHT22;38546;48.170;11.724;2023-03-01T05:20:08;-0.30;99.90
3488;DHT22;38546;48.170;11.724;2023-03-01T05:23:00;-0.30;99.90
3488;DHT22;38546;48.170;11.724;2023-03-01T05:25:54;-0.30;99.90
3488;DHT22;38546;48.170;11.724;2023-03-01T05:28:47;-0.30;99.90
3488;DHT22;38546;48.170;11.724;2023-03-01T05:31:37;-0.30;99.90
3488;DHT22;38546;48.170;11.724;2023-03-01T05:34:29;-0.30;99.90
3488;DHT22;38546;48.170;11.724;2023-03-01T05:37:20;-0.30;99.90
3488;DHT22;38546;48.170;11.724;2023-03-01T05:40:11;-0.30;99.90
3488;DHT22;38546;48.170;11.724;2023-03-01T05:43:04;-0.30;99.90
3488;DHT22;38546;48.170;11.724;2023-03-01T05:45:54;-0.30;99.90
3488;DHT22;38546;48.170;11.724;2023-03-01T05:48:46;-0.20;99.90
3488;DHT22;38546;48.170;11.724;2023-03-01T05:51:37;-0.20;99.90
3488;DHT22;38546;48.170;11.724;2023-03-01T05:54:26;-0.20;99.90
3488;DHT22;38546;48.170;11.724;2023-03-01T05:57:15;-0.10;99.90
3488;DHT22;38546;48.170;11.724;2023-03-01T06:00:04;-0.10;99.90
3488;DHT22;38546;48.170;11.724;2023-03-01T06:02:55;-0.10;99.90
3488;DHT22;38546;48.170;11.724;2023-03-01T06:05:45;-0.20;99.90
3488;DHT22;38546;48.170;11.724;2023-03-01T06:08:35;-0.30;99.90
3488;DHT22;38546;48.170;11.724;2023-03-01T06:11:24;-0.20;99.90
3488;DHT22;38546;48.170;11.724;2023-03-01T06:14:13;-0.10;99.90
3488;DHT22;38546;48.170;11.724;2023-03-01T06:17:03;0.00;99.90
3488;DHT22;38546;48.170;11.724;2023-03-01T06:19:52;0.00;99.90
3488;DHT22;38546;48.170;11.724;2023-03-01T06:22:42;-0.10;99.90
3488;DHT22;38546;48.170;11.724;2023-03-01T06:25:32;-0.20;99.90
3488;DHT22;38546;48.170;11.724;2023-03-01T06:28:22;-0.20;99.90
3488;DHT22;38546;48.170;11.724;2023-03-01T06:31:11;-0.10;99.90
3488;DHT22;38546;48.170;11.724;2023-03-01T06:34:00;-0.10;99.90
3488;DHT22;38546;48.170;11.724;2023-03-01T06:36:50;-0.10;99.90
3488;DHT22;38546;48.170;11.724;2023-03-01T06:39:38;-0.20;99.90
3488;DHT22;38546;48.170;11.724;2023-03-01T06:42:27;-0.10;99.90
3488;DHT22;38546;48.170;11.724;2023-03-01T06:45:18;-0.10;99.90
3488;DHT22;38546;48.170;11.724;2023-03-01T06:48:08;0.00;99.90
3488;DHT22;38546;48.170;11.724;2023-03-01T06:51:00;0.00;99.90
3488;DHT22;38546;48.170;11.724;2023-03-01T06:53:50;0.20;99.90
3488;DHT22;38546;48.170;11.724;2023-03-01T06:56:39;0.30;99.90
3488;DHT22;38546;48.170;11.724;2023-03-01T06:59:28;0.10;99.90
3488;DHT22;38546;48.170;11.724;2023-03-01T07:02:18;0.10;99.90
3488;DHT22;38546;48.170;11.724;2023-03-01T07:05:07;0.20;99.90
3488;DHT22;38546;48.170;11.724;2023-03-01T07:07:56;0.30;99.90
3488;DHT22;38546;48.170;11.724;2023-03-01T07:10:46;0.30;99.90
3488;DHT22;38546;48.170;11.724;2023-03-01T07:13:35;0.20;99.90
3488;DHT22;38546;48.170;11.724;2023-03-01T07:16:24;0.20;99.90
3488;DHT22;38546;48.170;11.724;2023-03-01T07:19:13;0.30;99.90
3488;DHT22;38546;48.170;11.724;2023-03-01T07:22:03;0.40;99.90
3488;DHT22;38546;48.170;11.724;2023-03-01T07:24:53;0.40;99.90
3488;DHT22;38546;48.170;11.724;2023-03-01T07:27:42;0.50;99.90
3488;DHT22;38546;48.170;11.724;2023-03-01T07:30:32;0.50;99.90
3488;DHT22;38546;48.170;11.724;2023-03-01T07:33:21;0.50;99.90
3488;DHT22;38546;48.170;11.724;2023-03-01T07:36:10;0.50;99.90
3488;DHT22;38546;48.170;11.724;2023-03-01T07:39:00;0.50;99.90
3488;DHT22;38546;48.170;11.724;2023-03-01T07:41:51;0.50;99.90
3488;DHT22;38546;48.170;11.724;2023-03-01T07:44:41;0.40;99.90
3488;DHT22;38546;48.170;11.724;2023-03-01T07:47:30;0.40;99.90
3488;DHT22;38546;48.170;11.724;2023-03-01T07:50:20;0.50;99.90
3488;DHT22;38546;48.170;11.724;2023-03-01T07:53:09;0.50;99.90
3488;DHT22;38546;48.170;11.724;2023-03-01T07:56:11;0.60;99.90
3488;DHT22;38546;48.170;11.724;2023-03-01T07:59:01;0.60;99.90
3488;DHT22;38546;48.170;11.724;2023-03-01T08:01:50;0.60;99.90
3488;DHT22;38546;48.170;11.724;2023-03-01T08:04:39;0.60;99.90
3488;DHT22;38546;48.170;11.724;2023-03-01T08:07:28;0.60;99.90
3488;DHT22;38546;48.170;11.724;2023-03-01T08:10:17;0.60;99.90
3488;DHT22;38546;48.170;11.724;2023-03-01T08:13:07;0.60;99.90
3488;DHT22;38546;48.170;11.724;2023-03-01T08:16:04;0.50;99.90
3488;DHT22;38546;48.170;11.724;2023-03-01T08:18:54;0.60;99.90
3488;DHT22;38546;48.170;11.724;2023-03-01T08:21:45;0.50;99.90
3488;DHT22;38546;48.170;11.724;2023-03-01T08:24:34;0.60;99.90
3488;DHT22;38546;48.170;11.724;2023-03-01T08:27:23;0.50;99.90
3488;DHT22;38546;48.170;11.724;2023-03-01T08:30:13;0.70;99.90
3488;DHT22;38546;48.170;11.724;2023-03-01T08:33:03;0.60;99.90
3488;DHT22;38546;48.170;11.724;2023-03-01T08:35:53;0.70;99.90
3488;DHT22;38546;48.170;11.724;2023-03-01T08:38:52;0.90;99.90
3488;DHT22;38546;48.170;11.724;2023-03-01T08:41:42;1.10;99.90
3488;DHT22;38546;48.170;11.724;2023-03-01T08:44:32;1.30;99.90
3488;DHT22;38546;48.170;11.724;2023-03-01T08:47:22;1.40;99.90
3488;DHT22;38546;48.170;11.724;2023-03-01T08:50:11;1.40;99.90
3488;DHT22;38546;48.170;11.724;2023-03-01T08:53:01;1.50;99.90
3488;DHT22;38546;48.170;11.724;2023-03-01T08:55:50;1.60;99.90
3488;DHT22;38546;48.170;11.724;2023-03-01T08:58:39;1.60;99.90
3488;DHT22;38546;48.170;11.724;2023-03-01T09:01:29;1.70;99.90
3488;DHT22;38546;48.170;11.724;2023-03-01T09:04:19;1.60;99.90
3488;DHT22;38546;48.170;11.724;2023-03-01T09:07:09;1.70;99.90
3488;DHT22;38546;48.170;11.724;2023-03-01T09:09:59;1.70;99.90
3488;DHT22;38546;48.170;11.724;2023-03-01T09:12:48;1.70;99.90
3488;DHT22;38546;48.170;11.724;2023-03-01T09:15:37;1.80;99.90
3488;DHT22;38546;48.170;11.724;2023-03-01T09:18:28;1.90;99.90
3488;DHT22;38546;48.170;11.724;2023-03-01T09:21:18;1.90;99.90
3488;DHT22;38546;48.170;11.724;2023-03-01T09:24:14;1.80;99.90
3488;DHT22;38546;48.170;11.724;2023-03-01T09:27:03;1.80;99.90
3488;DHT22;38546;48.170;11.724;2023-03-01T09:29:57;2.00;99.90
3488;DHT22;38546;48.170;11.724;2023-03-01T09:32:47;2.10;99.90
3488;DHT22;38546;48.170;11.724;2023-03-01T09:35:36;2.30;99.90
3488;DHT22;38546;48.170;11.724;2023-03-01T09:38:25;2.20;99.90
3488;DHT22;38546;48.170;11.724;2023-03-01T09:45:35;2.30;99.90
3488;DHT22;38546;48.170;11.724;2023-03-01T09:48:31;2.30;99.90
3488;DHT22;38546;48.170;11.724;2023-03-01T09:51:31;2.40;99.90
3488;DHT22;38546;48.170;11.724;2023-03-01T09:54:22;2.50;99.90
3488;DHT22;38546;48.170;11.724;2023-03-01T09:57:20;2.60;99.90
3488;DHT22;38546;48.170;11.724;2023-03-01T10:00:51;2.70;99.90
3488;DHT22;38546;48.170;11.724;2023-03-01T10:03:51;2.90;99.90
3488;DHT22;38546;48.170;11.724;2023-03-01T10:07:18;2.70;99.90
3488;DHT22;38546;48.170;11.724;2023-03-01T10:10:26;2.70;99.90
3488;DHT22;38546;48.170;11.724;2023-03-01T10:15:14;2.80;99.90
3488;DHT22;38546;48.170;11.724;2023-03-01T10:18:18;2.90;99.90
3488;DHT22;38546;48.170;11.724;2023-03-01T10:21:17;3.20;99.90
3488;DHT22;38546;48.170;11.724;2023-03-01T10:24:14;3.30;99.90
3488;DHT22;38546;48.170;11.724;2023-03-01T10:27:18;3.40;99.90
3488;DHT22;38546;48.170;11.724;2023-03-01T10:30:35;3.50;99.90
3488;DHT22;38546;48.170;11.724;2023-03-01T10:33:35;3.60;99.90
3488;DHT22;38546;48.170;11.724;2023-03-01T10:36:26;3.70;99.90
3488;DHT22;38546;48.170;11.724;2023-03-01T10:39:19;4.00;99.90
3488;DHT22;38546;48.170;11.724;2023-03-01T10:42:22;4.20;99.90
3488;DHT22;38546;48.170;11.724;2023-03-01T10:48:40;4.70;99.90
3488;DHT22;38546;48.170;11.724;2023-03-01T10:51:30;5.40;99.90
3488;DHT22;38546;48.170;11.724;2023-03-01T10:54:23;4.80;99.90
3488;DHT22;38546;48.170;11.724;2023-03-01T10:57:33;4.50;99.90
3488;DHT22;38546;48.170;11.724;2023-03-01T11:00:28;4.50;99.90
3488;DHT22;38546;48.170;11.724;2023-03-01T11:03:21;4.50;99.90
3488;DHT22;38546;48.170;11.724;2023-03-01T11:06:22;4.30;99.90
3488;DHT22;38546;48.170;11.724;2023-03-01T11:09:20;4.50;99.90
3488;DHT22;38546;48.170;11.724;2023-03-01T11:12:14;4.30;99.90
3488;DHT22;38546;48.170;11.724;2023-03-01T11:15:08;4.10;99.90
3488;DHT22;38546;48.170;11.724;2023-03-01T11:18:20;3.80;99.90
3488;DHT22;38546;48.170;11.724;2023-03-01T11:21:11;3.70;99.90
3488;DHT22;38546;48.170;11.724;2023-03-01T11:24:01;3.70;99.90
3488;DHT22;38546;48.170;11.724;2023-03-01T11:26:54;3.90;99.90
3488;DHT22;38546;48.170;11.724;2023-03-01T11:29:50;3.80;99.90
3488;DHT22;38546;48.170;11.724;2023-03-01T11:32:56;3.80;99.90
3488;DHT22;38546;48.170;11.724;2023-03-01T11:35:57;3.90;99.90
3488;DHT22;38546;48.170;11.724;2023-03-01T11:38:53;3.90;99.90
3488;DHT22;38546;48.170;11.724;2023-03-01T11:41:42;3.80;99.90
3488;DHT22;38546;48.170;11.724;2023-03-01T11:44:34;3.90;99.90
3488;DHT22;38546;48.170;11.724;2023-03-01T11:49:12;4.00;99.90
3488;DHT22;38546;48.170;11.724;2023-03-01T11:52:55;4.30;99.90
3488;DHT22;38546;48.170;11.724;2023-03-01T12:17:40;4.50;99.90
3488;DHT22;38546;48.170;11.724;2023-03-01T12:29:38;4.40;99.90
3488;DHT22;38546;48.170;11.724;2023-03-01T12:37:55;4.10;99.90
3488;DHT22;38546;48.170;11.724;2023-03-01T12:42:48;4.30;99.90
3488;DHT22;38546;48.170;11.724;2023-03-01T12:51:05;4.80;99.90
3488;DHT22;38546;48.170;11.724;2023-03-01T12:53:58;4.60;99.90
3488;DHT22;38546;48.170;11.724;2023-03-01T12:56:51;4.60;99.90
3488;DHT22;38546;48.170;11.724;2023-03-01T13:06:07;4.80;99.90
3488;DHT22;38546;48.170;11.724;2023-03-01T13:09:06;4.70;99.90
3488;DHT22;38546;48.170;11.724;2023-03-01T13:12:03;4.80;99.90
3488;DHT22;38546;48.170;11.724;2023-03-01T13:14:54;4.80;99.90
3488;DHT22;38546;48.170;11.724;2023-03-01T13:17:45;4.90;99.90
3488;DHT22;38546;48.170;11.724;2023-03-01T13:20:52;4.90;99.90
3488;DHT22;38546;48.170;11.724;2023-03-01T13:23:48;4.90;99.90
3488;DHT22;38546;48.170;11.724;2023-03-01T13:27:10;5.10;99.90
3488;DHT22;38546;48.170;11.724;2023-03-01T13:30:00;5.00;99.90
3488;DHT22;38546;48.170;11.724;2023-03-01T13:33:43;5.00;99.90
3488;DHT22;38546;48.170;11.724;2023-03-01T13:37:36;5.00;99.90
3488;DHT22;38546;48.170;11.724;2023-03-01T13:41:12;5.20;99.90
3488;DHT22;38546;48.170;11.724;2023-03-01T13:44:26;5.20;99.90
3488;DHT22;38546;48.170;11.724;2023-03-01T13:47:19;5.20;99.90
3488;DHT22;38546;48.170;11.724;2023-03-01T13:50:19;5.40;99.90
3488;DHT22;38546;48.170;11.724;2023-03-01T13:53:16;5.30;99.90
3488;DHT22;38546;48.170;11.724;2023-03-01T13:56:11;5.50;99.90
3488;DHT22;38546;48.170;11.724;2023-03-01T13:59:23;5.70;99.90
3488;DHT22;38546;48.170;11.724;2023-03-01T14:02:15;5.60;99.90
3488;DHT22;38546;48.170;11.724;2023-03-01T14:05:09;5.90;99.90
3488;DHT22;38546;48.170;11.724;2023-03-01T14:08:00;5.70;99.90
3488;DHT22;38546;48.170;11.724;2023-03-01T14:18:43;5.60;99.90
3488;DHT22;38546;48.170;11.724;2023-03-01T14:21:41;6.00;99.90
3488;DHT22;38546;48.170;11.724;2023-03-01T14:24:31;5.80;99.90
3488;DHT22;38546;48.170;11.724;2023-03-01T14:27:26;6.10;99.90
3488;DHT22;38546;48.170;11.724;2023-03-01T14:30:24;5.90;99.90
3488;DHT22;38546;48.170;11.724;2023-03-01T14:33:33;6.40;99.90
3488;DHT22;38546;48.170;11.724;2023-03-01T14:36:28;6.20;99.90
3488;DHT22;38546;48.170;11.724;2023-03-01T14:39:25;5.90;99.90
3488;DHT22;38546;48.170;11.724;2023-03-01T14:42:16;5.90;99.90
3488;DHT22;38546;48.170;11.724;2023-03-01T14:45:09;5.70;99.90
3488;DHT22;38546;48.170;11.724;2023-03-01T14:48:02;5.80;99.90
3488;DHT22;38546;48.170;11.724;2023-03-01T14:50:54;5.90;99.90
3488;DHT22;38546;48.170;11.724;2023-03-01T14:53:43;6.00;99.90
3488;DHT22;38546;48.170;11.724;2023-03-01T14:56:44;6.00;99.90
3488;DHT22;38546;48.170;11.724;2023-03-01T14:59:35;6.20;99.90
3488;DHT22;38546;48.170;11.724;2023-03-01T15:02:25;6.20;99.90
3488;DHT22;38546;48.170;11.724;2023-03-01T15:05:18;6.20;99.90
3488;DHT22;38546;48.170;11.724;2023-03-01T15:08:19;6.40;99.90
3488;DHT22;38546;48.170;11.724;2023-03-01T15:11:27;6.40;99.90
3488;DHT22;38546;48.170;11.724;2023-03-01T15:14:55;6.20;99.90
3488;DHT22;38546;48.170;11.724;2023-03-01T15:17:54;6.20;99.90
3488;DHT22;38546;48.170;11.724;2023-03-01T15:20:45;6.20;99.90
3488;DHT22;38546;48.170;11.724;2023-03-01T15:23:36;6.40;99.90
3488;DHT22;38546;48.170;11.724;2023-03-01T15:26:35;6.40;99.90
3488;DHT22;38546;48.170;11.724;2023-03-01T15:29:32;6.30;99.90
3488;DHT22;38546;48.170;11.724;2023-03-01T15:32:31;6.20;99.90
3488;DHT22;38546;48.170;11.724;2023-03-01T15:35:42;6.10;99.90
3488;DHT22;38546;48.170;11.724;2023-03-01T15:38:52;6.10;99.90
3488;DHT22;38546;48.170;11.724;2023-03-01T15:41:47;6.40;99.90
3488;DHT22;38546;48.170;11.724;2023-03-01T15:44:39;6.60;99.90
3488;DHT22;38546;48.170;11.724;2023-03-01T15:47:31;6.60;99.90
3488;DHT22;38546;48.170;11.724;2023-03-01T15:50:29;6.70;99.90
3488;DHT22;38546;48.170;11.724;2023-03-01T15:53:21;6.60;99.90
3488;DHT22;38546;48.170;11.724;2023-03-01T15:56:10;6.50;99.90
3488;DHT22;38546;48.170;11.724;2023-03-01T15:59:01;6.40;99.90
3488;DHT22;38546;48.170;11.724;2023-03-01T16:01:51;6.50;99.90
3488;DHT22;38546;48.170;11.724;2023-03-01T16:04:40;6.50;99.90
3488;DHT22;38546;48.170;11.724;2023-03-01T16:07:29;6.30;99.90
3488;DHT22;38546;48.170;11.724;2023-03-01T16:10:20;6.20;99.90
3488;DHT22;38546;48.170;11.724;2023-03-01T16:13:10;6.10;99.90
3488;DHT22;38546;48.170;11.724;2023-03-01T16:16:00;6.30;99.90
3488;DHT22;38546;48.170;11.724;2023-03-01T16:18:49;6.30;99.90
3488;DHT22;38546;48.170;11.724;2023-03-01T16:21:38;6.30;99.90
3488;DHT22;38546;48.170;11.724;2023-03-01T16:24:27;6.20;99.90
3488;DHT22;38546;48.170;11.724;2023-03-01T16:27:16;6.20;99.90
3488;DHT22;38546;48.170;11.724;2023-03-01T16:30:11;6.20;99.90
3488;DHT22;38546;48.170;11.724;2023-03-01T16:33:02;6.20;99.90
3488;DHT22;38546;48.170;11.724;2023-03-01T16:35:51;6.10;99.90
3488;DHT22;38546;48.170;11.724;2023-03-01T16:38:42;6.20;99.90
3488;DHT22;38546;48.170;11.724;2023-03-01T16:41:32;6.00;99.90
3488;DHT22;38546;48.170;11.724;2023-03-01T16:44:20;5.80;99.90
3488;DHT22;38546;48.170;11.724;2023-03-01T16:47:10;5.70;99.90
3488;DHT22;38546;48.170;11.724;2023-03-01T16:49:59;5.50;99.90
3488;DHT22;38546;48.170;11.724;2023-03-01T16:52:51;5.50;99.90
3488;DHT22;38546;48.170;11.724;2023-03-01T16:55:40;5.50;99.90
3488;DHT22;38546;48.170;11.724;2023-03-01T16:58:35;5.60;99.90
3488;DHT22;38546;48.170;11.724;2023-03-01T17:01:25;5.70;99.90
3488;DHT22;38546;48.170;11.724;2023-03-01T17:04:14;5.60;99.90
3488;DHT22;38546;48.170;11.724;2023-03-01T17:07:03;5.60;99.90
3488;DHT22;38546;48.170;11.724;2023-03-01T17:09:52;5.60;99.90
3488;DHT22;38546;48.170;11.724;2023-03-01T17:12:41;5.40;99.90
3488;DHT22;38546;48.170;11.724;2023-03-01T17:15:30;5.30;99.90
3488;DHT22;38546;48.170;11.724;2023-03-01T17:18:18;5.20;99.90
3488;DHT22;38546;48.170;11.724;2023-03-01T17:21:08;5.20;99.90
3488;DHT22;38546;48.170;11.724;2023-03-01T17:23:58;5.20;99.90
3488;DHT22;38546;48.170;11.724;2023-03-01T17:26:47;5.40;99.90
3488;DHT22;38546;48.170;11.724;2023-03-01T17:29:36;5.40;99.90
3488;DHT22;38546;48.170;11.724;2023-03-01T17:32:25;5.30;99.90
3488;DHT22;38546;48.170;11.724;2023-03-01T17:35:14;5.00;99.90
3488;DHT22;38546;48.170;11.724;2023-03-01T17:38:04;5.10;99.90
3488;DHT22;38546;48.170;11.724;2023-03-01T17:40:53;5.20;99.90
3488;DHT22;38546;48.170;11.724;2023-03-01T17:43:42;5.00;99.90
3488;DHT22;38546;48.170;11.724;2023-03-01T17:46:32;5.00;99.90
3488;DHT22;38546;48.170;11.724;2023-03-01T17:49:21;4.90;99.90
3488;DHT22;38546;48.170;11.724;2023-03-01T17:52:10;4.80;99.90
3488;DHT22;38546;48.170;11.724;2023-03-01T17:54:59;4.70;99.90
3488;DHT22;38546;48.170;11.724;2023-03-01T17:57:48;4.60;99.90
3488;DHT22;38546;48.170;11.724;2023-03-01T18:00:37;4.50;99.90
3488;DHT22;38546;48.170;11.724;2023-03-01T18:03:26;4.30;99.90
3488;DHT22;38546;48.170;11.724;2023-03-01T18:06:18;4.20;99.90
3488;DHT22;38546;48.170;11.724;2023-03-01T18:09:09;4.00;99.90
3488;DHT22;38546;48.170;11.724;2023-03-01T18:11:59;3.90;99.90
3488;DHT22;38546;48.170;11.724;2023-03-01T18:14:49;3.70;99.90
3488;DHT22;38546;48.170;11.724;2023-03-01T18:17:41;3.60;99.90
3488;DHT22;38546;48.170;11.724;2023-03-01T18:20:31;3.50;99.90
3488;DHT22;38546;48.170;11.724;2023-03-01T18:23:22;3.40;99.90
3488;DHT22;38546;48.170;11.724;2023-03-01T18:26:13;3.30;99.90
3488;DHT22;38546;48.170;11.724;2023-03-01T18:29:05;3.30;99.90
3488;DHT22;38546;48.170;11.724;2023-03-01T18:31:55;3.20;99.90
3488;DHT22;38546;48.170;11.724;2023-03-01T18:34:45;3.10;99.90
3488;DHT22;38546;48.170;11.724;2023-03-01T18:37:33;3.00;99.90
3488;DHT22;38546;48.170;11.724;2023-03-01T18:40:22;3.10;99.90
3488;DHT22;38546;48.170;11.724;2023-03-01T18:43:12;3.10;99.90
3488;DHT22;38546;48.170;11.724;2023-03-01T18:46:01;3.00;99.90
3488;DHT22;38546;48.170;11.724;2023-03-01T18:48:53;2.90;99.90
3488;DHT22;38546;48.170;11.724;2023-03-01T18:51:42;2.80;99.90
3488;DHT22;38546;48.170;11.724;2023-03-01T18:54:32;2.70;99.90
3488;DHT22;38546;48.170;11.724;2023-03-01T18:57:23;2.60;99.90
3488;DHT22;38546;48.170;11.724;2023-03-01T19:00:13;2.60;99.90
3488;DHT22;38546;48.170;11.724;2023-03-01T19:03:03;2.40;99.90
3488;DHT22;38546;48.170;11.724;2023-03-01T19:05:52;2.40;99.90
3488;DHT22;38546;48.170;11.724;2023-03-01T19:08:41;2.30;99.90
3488;DHT22;38546;48.170;11.724;2023-03-01T19:11:32;2.20;99.90
3488;DHT22;38546;48.170;11.724;2023-03-01T19:14:23;2.20;99.90
3488;DHT22;38546;48.170;11.724;2023-03-01T19:17:12;2.00;99.90
3488;DHT22;38546;48.170;11.724;2023-03-01T19:20:01;2.00;99.90
3488;DHT22;38546;48.170;11.724;2023-03-01T19:22:51;2.00;99.90
3488;DHT22;38546;48.170;11.724;2023-03-01T19:25:40;1.90;99.90
3488;DHT22;38546;48.170;11.724;2023-03-01T19:28:29;1.90;99.90
3488;DHT22;38546;48.170;11.724;2023-03-01T19:31:21;1.90;99.90
3488;DHT22;38546;48.170;11.724;2023-03-01T19:34:13;1.90;99.90
3488;DHT22;38546;48.170;11.724;2023-03-01T19:37:03;1.90;99.90
3488;DHT22;38546;48.170;11.724;2023-03-01T19:39:52;1.90;99.90
3488;DHT22;38546;48.170;11.724;2023-03-01T19:42:41;1.90;99.90
3488;DHT22;38546;48.170;11.724;2023-03-01T19:45:31;1.80;99.90